createdAt,value
2023-07-26T00:02:02.238Z,100.00
2023-07-26T00:04:48.409Z,100.00
2023-07-26T00:07:34.876Z,100.00
2023-07-26T00:10:21.162Z,100.00
2023-07-26T00:13:07.388Z,100.00
2023-07-26T00:15:54.103Z,100.00
2023-07-26T00:18:41.052Z,100.00
2023-07-26T00:21:28.166Z,100.00
2023-07-26T00:24:14.373Z,100.00
2023-07-26T00:27:00.906Z,100.00
2023-07-26T00:29:47.829Z,100.00
2023-07-26T00:32:34.063Z,100.00
2023-07-26T00:35:26.198Z,100.00
2023-07-26T00:38:12.482Z,100.00
2023-07-26T00:40:58.931Z,100.00
2023-07-26T00:43:46.069Z,100.00
2023-07-26T00:46:32.923Z,100.00
2023-07-26T00:49:20.086Z,100.00
2023-07-26T00:52:06.863Z,100.00
2023-07-26T00:54:56.854Z,100.00
2023-07-26T00:57:45.025Z,100.00
2023-07-26T01:00:31.700Z,100.00
2023-07-26T01:03:18.760Z,100.00
2023-07-26T01:06:37.362Z,100.00
2023-07-26T01:09:32.832Z,100.00
2023-07-26T01:12:33.281Z,100.00
2023-07-26T01:15:27.147Z,100.00
2023-07-26T01:18:16.054Z,100.00
2023-07-26T01:21:02.741Z,100.00
2023-07-26T01:23:49.142Z,100.00
2023-07-26T01:26:36.244Z,100.00
2023-07-26T01:29:22.830Z,100.00
2023-07-26T01:32:11.558Z,100.00
2023-07-26T01:34:58.521Z,100.00
2023-07-26T01:37:45.178Z,100.00
2023-07-26T01:40:31.794Z,100.00
2023-07-26T01:43:18.592Z,100.00
2023-07-26T01:46:04.969Z,100.00
2023-07-26T01:48:51.999Z,100.00
2023-07-26T01:51:38.276Z,100.00
2023-07-26T01:54:24.784Z,100.00
2023-07-26T01:57:11.230Z,100.00
2023-07-26T01:59:58.697Z,100.00
2023-07-26T02:02:45.428Z,100.00
2023-07-26T02:05:32.112Z,100.00
2023-07-26T02:08:18.921Z,100.00
2023-07-26T02:11:05.454Z,100.00
2023-07-26T02:13:52.038Z,100.00
2023-07-26T02:16:38.414Z,100.00
2023-07-26T02:19:24.884Z,100.00
2023-07-26T02:22:11.438Z,100.00
2023-07-26T02:24:58.217Z,100.00
2023-07-26T02:27:44.620Z,100.00
2023-07-26T02:30:31.352Z,100.00
2023-07-26T02:33:17.822Z,100.00
2023-07-26T02:36:04.351Z,100.00
2023-07-26T02:38:51.710Z,100.00
2023-07-26T02:41:38.277Z,100.00
2023-07-26T02:44:24.814Z,100.00
2023-07-26T02:47:11.132Z,100.00
2023-07-26T02:49:57.572Z,100.00
2023-07-26T02:52:43.950Z,100.00
2023-07-26T02:55:30.675Z,100.00
2023-07-26T02:58:16.833Z,100.00
2023-07-26T03:01:03.790Z,100.00
2023-07-26T03:03:50.247Z,100.00
2023-07-26T03:06:36.730Z,100.00
2023-07-26T03:09:23.157Z,100.00
2023-07-26T03:12:09.575Z,100.00
2023-07-26T03:14:55.842Z,100.00
2023-07-26T03:17:42.149Z,100.00
2023-07-26T03:20:28.691Z,100.00
2023-07-26T03:23:15.413Z,100.00
2023-07-26T03:26:03.203Z,100.00
2023-07-26T03:28:49.774Z,100.00
2023-07-26T03:31:35.994Z,100.00
2023-07-26T03:34:22.691Z,100.00
2023-07-26T03:37:09.477Z,100.00
2023-07-26T03:39:55.808Z,100.00
2023-07-26T03:42:43.122Z,100.00
2023-07-26T03:45:29.804Z,100.00
2023-07-26T03:48:15.991Z,100.00
2023-07-26T03:51:02.191Z,100.00
2023-07-26T03:53:48.668Z,100.00
2023-07-26T03:56:35.467Z,100.00
2023-07-26T03:59:21.970Z,100.00
2023-07-26T04:02:09.410Z,100.00
2023-07-26T04:04:56.064Z,100.00
2023-07-26T04:07:44.078Z,100.00
2023-07-26T04:10:30.752Z,100.00
2023-07-26T04:13:17.363Z,100.00
2023-07-26T04:16:15.295Z,100.00
2023-07-26T04:19:01.559Z,100.00
2023-07-26T04:21:48.192Z,100.00
2023-07-26T04:24:35.350Z,100.00
2023-07-26T04:27:21.515Z,100.00
2023-07-26T04:30:08.428Z,100.00
2023-07-26T04:32:55.017Z,100.00
2023-07-26T04:35:41.422Z,100.00
2023-07-26T04:38:27.857Z,100.00
2023-07-26T04:41:14.446Z,100.00
2023-07-26T04:44:00.729Z,100.00
2023-07-26T04:46:47.296Z,100.00
2023-07-26T04:49:33.866Z,100.00
2023-07-26T04:52:20.106Z,100.00
2023-07-26T04:55:06.999Z,100.00
2023-07-26T04:57:53.636Z,100.00
2023-07-26T05:00:41.039Z,100.00
2023-07-26T05:03:27.532Z,100.00
2023-07-26T05:06:14.251Z,100.00
2023-07-26T05:09:01.084Z,100.00
2023-07-26T05:11:47.359Z,100.00
2023-07-26T05:14:34.049Z,100.00
2023-07-26T05:17:20.363Z,100.00
2023-07-26T05:20:07.186Z,100.00
2023-07-26T05:22:53.646Z,100.00
2023-07-26T05:25:41.281Z,100.00
2023-07-26T05:28:29.132Z,100.00
2023-07-26T05:31:15.897Z,100.00
2023-07-26T05:34:02.454Z,100.00
2023-07-26T05:36:48.589Z,100.00
2023-07-26T05:39:35.063Z,100.00
2023-07-26T05:42:21.227Z,100.00
2023-07-26T05:45:08.302Z,100.00
2023-07-26T05:47:54.747Z,100.00
2023-07-26T05:50:41.093Z,100.00
2023-07-26T05:53:27.324Z,100.00
2023-07-26T05:56:15.245Z,100.00
2023-07-26T05:59:01.570Z,100.00
2023-07-26T06:01:47.989Z,100.00
2023-07-26T06:04:35.149Z,100.00
2023-07-26T06:07:21.934Z,100.00
2023-07-26T06:10:08.311Z,100.00
2023-07-26T06:12:54.627Z,100.00
2023-07-26T06:15:41.693Z,100.00
2023-07-26T06:18:27.922Z,100.00
2023-07-26T06:21:14.777Z,100.00
2023-07-26T06:24:01.270Z,100.00
2023-07-26T06:26:47.592Z,100.00
2023-07-26T06:29:36.276Z,100.00
2023-07-26T06:32:22.455Z,100.00
2023-07-26T06:35:12.478Z,100.00
2023-07-26T06:37:59.068Z,100.00
2023-07-26T06:40:45.436Z,100.00
2023-07-26T06:43:31.966Z,100.00
2023-07-26T06:46:18.384Z,100.00
2023-07-26T06:49:04.962Z,100.00
2023-07-26T06:51:52.220Z,100.00
2023-07-26T06:54:38.735Z,100.00
2023-07-26T06:57:25.496Z,100.00
2023-07-26T07:00:15.356Z,100.00
2023-07-26T07:03:04.178Z,100.00
2023-07-26T07:05:50.527Z,100.00
2023-07-26T07:08:38.470Z,100.00
2023-07-26T07:11:24.945Z,100.00
2023-07-26T07:14:11.648Z,100.00
2023-07-26T07:16:58.126Z,100.00
2023-07-26T07:19:47.473Z,100.00
2023-07-26T07:22:36.998Z,100.00
2023-07-26T07:25:23.672Z,100.00
2023-07-26T07:28:10.004Z,100.00
2023-07-26T07:30:56.235Z,100.00
2023-07-26T07:33:42.670Z,100.00
2023-07-26T07:36:29.271Z,100.00
2023-07-26T07:39:15.865Z,100.00
2023-07-26T07:42:02.579Z,100.00
2023-07-26T07:44:48.887Z,100.00
2023-07-26T07:47:35.284Z,100.00
2023-07-26T07:50:21.836Z,100.00
2023-07-26T07:53:08.485Z,100.00
2023-07-26T07:55:54.814Z,100.00
2023-07-26T07:58:41.212Z,100.00
2023-07-26T08:01:27.561Z,100.00
2023-07-26T08:04:14.122Z,100.00
2023-07-26T08:07:00.420Z,100.00
2023-07-26T08:09:47.031Z,100.00
2023-07-26T08:12:35.945Z,100.00
2023-07-26T08:15:22.271Z,100.00
2023-07-26T08:18:09.391Z,100.00
2023-07-26T08:20:55.975Z,100.00
2023-07-26T08:23:42.162Z,100.00
2023-07-26T08:26:28.882Z,100.00
2023-07-26T08:29:16.601Z,100.00
2023-07-26T08:32:02.976Z,100.00
2023-07-26T08:34:49.438Z,100.00
2023-07-26T08:37:35.870Z,100.00
2023-07-26T08:40:22.185Z,100.00
2023-07-26T08:43:09.238Z,100.00
2023-07-26T08:45:55.835Z,100.00
2023-07-26T08:48:43.289Z,96.67
2023-07-26T08:51:31.255Z,100.00
2023-07-26T08:54:18.600Z,100.00
2023-07-26T08:57:05.072Z,100.00
2023-07-26T08:59:51.853Z,100.00
2023-07-26T09:02:41.038Z,100.00
2023-07-26T09:05:27.969Z,100.00
2023-07-26T09:08:14.538Z,100.00
2023-07-26T09:11:04.176Z,100.00
2023-07-26T09:13:54.799Z,100.00
2023-07-26T09:16:41.323Z,100.00
2023-07-26T09:19:29.870Z,100.00
2023-07-26T09:22:16.186Z,100.00
2023-07-26T09:25:03.632Z,99.30
2023-07-26T09:27:54.141Z,100.00
2023-07-26T09:30:42.780Z,100.00
2023-07-26T09:33:30.184Z,100.00
2023-07-26T09:36:16.499Z,100.00
2023-07-26T09:39:04.336Z,100.00
2023-07-26T09:41:51.881Z,100.00
2023-07-26T09:44:38.548Z,100.00
2023-07-26T09:47:40.662Z,100.00
2023-07-26T09:53:20.324Z,100.00
2023-07-26T09:56:07.401Z,100.00
2023-07-26T09:58:53.926Z,94.11
2023-07-26T10:01:45.350Z,97.53
2023-07-26T10:04:55.068Z,94.75
2023-07-26T10:07:41.898Z,90.82
2023-07-26T10:10:29.141Z,96.12
2023-07-26T10:13:19.526Z,91.87
2023-07-26T10:16:09.574Z,89.27
2023-07-26T10:18:57.598Z,90.02
2023-07-26T10:21:44.565Z,89.00
2023-07-26T10:24:31.908Z,83.06
2023-07-26T10:27:18.822Z,85.64
2023-07-26T10:30:06.546Z,89.51
2023-07-26T10:32:52.894Z,87.66
2023-07-26T10:35:42.683Z,83.70
2023-07-26T10:38:29.202Z,84.26
2023-07-26T10:41:27.104Z,82.33
2023-07-26T10:44:13.760Z,82.83
2023-07-26T10:47:04.480Z,83.51
2023-07-26T10:49:51.163Z,84.82
2023-07-26T10:52:38.708Z,84.64
2023-07-26T10:55:27.735Z,82.27
2023-07-26T10:58:14.194Z,79.98
2023-07-26T11:01:04.654Z,81.25
2023-07-26T11:03:52.033Z,80.06
2023-07-26T11:06:57.054Z,78.76
2023-07-26T11:09:44.192Z,81.25
2023-07-26T11:12:30.485Z,76.39
2023-07-26T11:16:12.740Z,74.32
2023-07-26T11:18:41.409Z,73.87
2023-07-26T11:21:27.970Z,69.23
2023-07-26T11:24:14.491Z,67.40
2023-07-26T11:27:06.619Z,66.74
2023-07-26T11:29:53.805Z,66.73
2023-07-26T11:32:47.646Z,67.79
2023-07-26T11:35:42.280Z,65.72
2023-07-26T11:38:29.039Z,64.29
2023-07-26T11:41:19.788Z,61.55
2023-07-26T11:44:06.334Z,58.95
2023-07-26T11:46:52.613Z,58.03
2023-07-26T11:49:38.892Z,57.26
2023-07-26T11:52:26.705Z,59.76
2023-07-26T11:55:12.949Z,56.27
2023-07-26T11:58:09.188Z,55.55
2023-07-26T12:00:56.237Z,56.64
2023-07-26T12:03:42.769Z,57.58
2023-07-26T12:06:34.677Z,57.97
2023-07-26T12:09:21.599Z,55.90
2023-07-26T12:12:07.991Z,59.90
2023-07-26T12:14:57.546Z,61.43
2023-07-26T12:18:04.676Z,61.18
2023-07-26T12:21:10.141Z,62.97
2023-07-26T12:24:07.312Z,61.63
2023-07-26T12:26:53.957Z,60.66
2023-07-26T12:29:40.792Z,59.10
2023-07-26T12:32:27.034Z,57.58
2023-07-26T12:35:21.791Z,60.46
2023-07-26T12:38:10.136Z,55.38
2023-07-26T12:40:56.912Z,54.34
2023-07-26T12:43:45.860Z,55.75
2023-07-26T12:46:45.876Z,56.96
2023-07-26T12:49:41.096Z,55.83
2023-07-26T12:52:28.669Z,57.03
2023-07-26T12:55:15.204Z,55.09
2023-07-26T12:58:01.584Z,57.29
2023-07-26T13:00:49.148Z,55.92
2023-07-26T13:03:35.751Z,58.45
2023-07-26T13:06:22.356Z,62.37
2023-07-26T13:09:08.922Z,66.77
2023-07-26T13:11:55.334Z,67.87
2023-07-26T13:14:41.720Z,68.84
2023-07-26T13:17:28.223Z,65.68
2023-07-26T13:20:15.458Z,64.35
2023-07-26T13:23:01.893Z,63.57
2023-07-26T13:25:48.071Z,63.36
2023-07-26T13:28:34.471Z,63.01
2023-07-26T13:31:20.910Z,60.65
2023-07-26T13:34:07.226Z,58.24
2023-07-26T13:36:57.877Z,57.78
2023-07-26T13:39:44.297Z,57.27
2023-07-26T13:42:30.966Z,58.34
2023-07-26T13:45:17.122Z,57.87
2023-07-26T13:48:03.826Z,56.64
2023-07-26T13:50:50.296Z,55.13
2023-07-26T13:53:36.678Z,53.84
2023-07-26T13:56:23.336Z,52.79
2023-07-26T13:59:09.774Z,53.19
2023-07-26T14:01:56.236Z,53.33
2023-07-26T14:04:43.000Z,50.88
2023-07-26T14:07:29.247Z,50.22
2023-07-26T14:10:15.617Z,50.04
2023-07-26T14:13:01.938Z,47.89
2023-07-26T14:15:48.100Z,49.34
2023-07-26T14:18:34.698Z,46.27
2023-07-26T14:21:20.849Z,44.41
2023-07-26T14:24:07.411Z,44.71
2023-07-26T14:26:53.845Z,44.65
2023-07-26T14:29:40.282Z,44.82
2023-07-26T14:32:26.862Z,45.88
2023-07-26T14:35:13.218Z,46.42
2023-07-26T14:37:59.674Z,43.94
2023-07-26T14:40:46.023Z,45.01
2023-07-26T14:43:32.562Z,46.10
2023-07-26T14:46:19.142Z,44.40
2023-07-26T14:49:05.528Z,45.31
2023-07-26T14:51:52.226Z,47.00
2023-07-26T14:54:38.385Z,47.03
2023-07-26T14:57:24.702Z,46.98
2023-07-26T15:00:11.859Z,46.36
2023-07-26T15:02:58.466Z,47.20
2023-07-26T15:05:46.191Z,49.45
2023-07-26T15:08:32.761Z,50.00
2023-07-26T15:11:19.348Z,49.39
2023-07-26T15:14:06.217Z,50.80
2023-07-26T15:16:52.899Z,53.03
2023-07-26T15:19:39.294Z,53.02
2023-07-26T15:22:25.681Z,56.00
2023-07-26T15:25:12.117Z,56.03
2023-07-26T15:27:58.271Z,56.61
2023-07-26T15:30:44.859Z,55.79
2023-07-26T15:33:31.869Z,57.54
2023-07-26T15:36:18.309Z,56.62
2023-07-26T15:39:09.740Z,57.34
2023-07-26T15:45:00.642Z,58.16
2023-07-26T15:47:48.033Z,58.36
2023-07-26T15:50:34.306Z,58.25
2023-07-26T15:53:22.069Z,58.06
2023-07-26T15:56:08.379Z,55.01
2023-07-26T15:58:54.889Z,55.29
2023-07-26T16:01:42.056Z,55.12
2023-07-26T16:04:28.877Z,55.80
2023-07-26T16:07:15.614Z,58.07
2023-07-26T16:10:02.542Z,55.92
2023-07-26T16:12:49.399Z,55.15
2023-07-26T16:15:36.716Z,56.90
2023-07-26T16:19:12.585Z,56.38
2023-07-26T16:21:51.026Z,56.05
2023-07-26T16:24:37.831Z,56.24
2023-07-26T16:27:24.143Z,58.88
2023-07-26T16:30:10.931Z,58.00
2023-07-26T16:32:57.658Z,55.82
2023-07-26T16:35:44.435Z,56.08
2023-07-26T16:38:30.926Z,56.87
2023-07-26T16:41:17.616Z,57.63
2023-07-26T16:44:03.972Z,56.25
2023-07-26T16:47:06.885Z,59.11
2023-07-26T16:49:55.222Z,58.11
2023-07-26T16:52:41.840Z,56.68
2023-07-26T16:55:28.437Z,58.79
2023-07-26T16:58:14.993Z,57.03
2023-07-26T17:01:03.044Z,54.30
2023-07-26T17:03:49.355Z,56.12
2023-07-26T17:06:35.843Z,56.31
2023-07-26T17:09:22.836Z,57.54
2023-07-26T17:12:09.370Z,57.48
2023-07-26T17:14:55.765Z,58.04
2023-07-26T17:17:42.484Z,57.99
2023-07-26T17:20:28.769Z,58.16
2023-07-26T17:23:15.570Z,58.59
2023-07-26T17:26:02.539Z,59.80
2023-07-26T17:28:48.813Z,59.08
2023-07-26T17:31:35.110Z,59.25
2023-07-26T17:34:21.543Z,57.07
2023-07-26T17:37:08.127Z,57.05
2023-07-26T17:39:54.775Z,57.86
2023-07-26T17:42:41.482Z,58.75
2023-07-26T17:45:27.957Z,59.85
2023-07-26T17:48:14.353Z,61.35
2023-07-26T17:51:01.286Z,60.82
2023-07-26T17:53:47.770Z,63.49
2023-07-26T17:56:34.093Z,63.66
2023-07-26T17:59:20.461Z,61.98
2023-07-26T18:02:07.890Z,62.08
2023-07-26T18:04:54.272Z,63.72
2023-07-26T18:07:40.634Z,64.92
2023-07-26T18:10:27.201Z,66.13
2023-07-26T18:13:13.480Z,63.91
2023-07-26T18:16:16.711Z,66.27
2023-07-26T18:19:03.361Z,67.42
2023-07-26T18:21:49.762Z,70.07
2023-07-26T18:24:36.217Z,70.83
2023-07-26T18:27:22.546Z,69.76
2023-07-26T18:30:09.596Z,70.29
2023-07-26T18:32:56.125Z,73.29
2023-07-26T18:35:42.341Z,75.09
2023-07-26T18:38:30.433Z,75.62
2023-07-26T18:41:16.876Z,77.09
2023-07-26T18:44:03.348Z,75.50
2023-07-26T18:46:49.769Z,77.88
2023-07-26T18:49:36.478Z,79.26
2023-07-26T18:52:22.741Z,80.18
2023-07-26T18:55:09.037Z,82.02
2023-07-26T18:57:55.308Z,83.20
2023-07-26T19:00:41.863Z,80.10
2023-07-26T19:03:28.187Z,81.18
2023-07-26T19:06:14.910Z,83.27
2023-07-26T19:09:01.069Z,84.66
2023-07-26T19:11:49.983Z,87.44
2023-07-26T19:14:36.525Z,87.95
2023-07-26T19:17:23.082Z,90.05
2023-07-26T19:20:09.940Z,90.74
2023-07-26T19:22:56.265Z,90.92
2023-07-26T19:25:42.583Z,90.05
2023-07-26T19:28:29.246Z,90.35
2023-07-26T19:31:15.804Z,89.11
2023-07-26T19:34:02.075Z,87.99
2023-07-26T19:36:48.551Z,85.39
2023-07-26T19:39:35.337Z,87.68
2023-07-26T19:42:22.095Z,88.01
2023-07-26T19:45:08.915Z,86.39
2023-07-26T19:47:55.459Z,86.06
2023-07-26T19:50:41.673Z,86.75
2023-07-26T19:53:28.494Z,87.28
2023-07-26T19:56:14.990Z,88.82
2023-07-26T19:59:01.276Z,90.14
2023-07-26T20:01:47.943Z,91.12
2023-07-26T20:04:37.572Z,92.34
2023-07-26T20:07:23.767Z,93.52
2023-07-26T20:10:10.550Z,94.18
2023-07-26T20:12:56.741Z,92.23
2023-07-26T20:15:44.087Z,92.81
2023-07-26T20:18:30.454Z,95.03
2023-07-26T20:21:16.946Z,96.22
2023-07-26T20:24:04.214Z,97.93
2023-07-26T20:26:50.709Z,98.89
2023-07-26T20:29:38.598Z,100.00
2023-07-26T20:32:24.832Z,100.00
2023-07-26T20:35:11.455Z,100.00
2023-07-26T20:37:58.337Z,100.00
2023-07-26T20:40:49.417Z,100.00
2023-07-26T20:43:35.651Z,100.00
2023-07-26T20:46:22.275Z,100.00
2023-07-26T20:49:08.528Z,100.00
2023-07-26T20:51:54.999Z,100.00
2023-07-26T20:54:41.379Z,100.00
2023-07-26T20:57:28.062Z,100.00
2023-07-26T21:00:14.905Z,100.00
2023-07-26T21:03:01.541Z,100.00
2023-07-26T21:05:48.764Z,100.00
2023-07-26T21:08:35.003Z,100.00
2023-07-26T21:11:21.250Z,100.00
2023-07-26T21:14:08.082Z,100.00
2023-07-26T21:16:54.824Z,100.00
2023-07-26T21:19:41.172Z,100.00
2023-07-26T21:22:27.996Z,100.00
2023-07-26T21:25:14.270Z,100.00
2023-07-26T21:28:00.702Z,100.00
2023-07-26T21:30:51.141Z,100.00
2023-07-26T21:33:37.904Z,100.00
2023-07-26T21:36:25.834Z,100.00
2023-07-26T21:39:12.469Z,100.00
2023-07-26T21:41:58.952Z,100.00
2023-07-26T21:44:45.465Z,100.00
2023-07-26T21:47:33.211Z,100.00
2023-07-26T21:50:19.995Z,100.00
2023-07-26T21:53:06.169Z,100.00
2023-07-26T21:55:52.621Z,100.00
2023-07-26T21:58:38.969Z,100.00
2023-07-26T22:01:25.504Z,100.00
2023-07-26T22:04:11.897Z,100.00
2023-07-26T22:06:58.589Z,100.00
2023-07-26T22:09:45.154Z,100.00
2023-07-26T22:12:31.589Z,100.00
2023-07-26T22:15:17.785Z,100.00
2023-07-26T22:18:04.667Z,100.00
2023-07-26T22:23:52.774Z,100.00
2023-07-26T22:26:39.141Z,100.00
2023-07-26T22:29:25.400Z,100.00
2023-07-26T22:32:14.602Z,100.00
2023-07-26T22:35:01.040Z,100.00
2023-07-26T22:37:47.309Z,100.00
2023-07-26T22:40:34.094Z,100.00
2023-07-26T22:43:20.607Z,100.00
2023-07-26T22:46:07.885Z,100.00
2023-07-26T22:48:55.166Z,100.00
2023-07-26T22:51:41.449Z,100.00
2023-07-26T22:54:27.797Z,100.00
2023-07-26T22:57:14.390Z,100.00
2023-07-26T23:00:00.916Z,100.00
2023-07-26T23:02:47.557Z,100.00
2023-07-26T23:05:34.107Z,100.00
2023-07-26T23:08:20.604Z,100.00
2023-07-26T23:11:08.032Z,100.00
2023-07-26T23:13:54.844Z,100.00
2023-07-26T23:16:41.168Z,100.00
2023-07-26T23:19:27.733Z,100.00
2023-07-26T23:22:14.255Z,100.00
2023-07-26T23:25:00.852Z,100.00
2023-07-26T23:27:47.825Z,100.00
2023-07-26T23:30:34.394Z,100.00
2023-07-26T23:33:21.292Z,100.00
2023-07-26T23:36:07.807Z,100.00
2023-07-26T23:38:54.133Z,100.00
2023-07-26T23:41:40.416Z,100.00
2023-07-26T23:44:26.701Z,100.00
2023-07-26T23:47:13.202Z,100.00
2023-07-26T23:49:59.648Z,100.00
2023-07-26T23:52:46.189Z,100.00
2023-07-26T23:55:32.543Z,100.00
2023-07-26T23:58:18.942Z,100.00
